createdAt,value
2022-10-12T00:01:52.273Z,99297.69
2022-10-12T00:04:19.454Z,99295.97
2022-10-12T00:06:46.557Z,99292.50
2022-10-12T00:09:13.749Z,99289.91
2022-10-12T00:11:41.218Z,99286.47
2022-10-12T00:14:08.485Z,99289.16
2022-10-12T00:16:36.326Z,99284.81
2022-10-12T00:19:05.121Z,99286.56
2022-10-12T00:21:32.207Z,99283.97
2022-10-12T00:23:59.319Z,99291.78
2022-10-12T00:26:26.418Z,99288.34
2022-10-12T00:28:53.779Z,99290.09
2022-10-12T00:31:21.024Z,99293.53
2022-10-12T00:33:48.099Z,99298.75
2022-10-12T00:36:15.177Z,99288.34
2022-10-12T00:38:42.317Z,99285.81
2022-10-12T00:41:09.490Z,99285.81
2022-10-12T00:43:39.014Z,99288.41
2022-10-12T00:46:06.128Z,99290.09
2022-10-12T00:48:33.240Z,99282.38
2022-10-12T00:51:00.303Z,99280.63
2022-10-12T00:53:27.432Z,99289.25
2022-10-12T00:55:54.535Z,99285.81
2022-10-12T00:58:21.787Z,99281.56
2022-10-12T01:00:49.156Z,99278.94
2022-10-12T01:03:16.257Z,99279.88
2022-10-12T01:05:43.424Z,99284.16
2022-10-12T01:08:10.562Z,99283.31
2022-10-12T01:10:37.648Z,99291.13
2022-10-12T01:13:04.735Z,99278.94
2022-10-12T01:15:31.811Z,99278.13
2022-10-12T01:17:58.906Z,99276.47
2022-10-12T01:20:25.981Z,99286.03
2022-10-12T01:22:53.094Z,99279.88
2022-10-12T01:25:20.178Z,99279.88
2022-10-12T01:27:47.327Z,99277.28
2022-10-12T01:30:14.447Z,99283.44
2022-10-12T01:32:41.549Z,99282.56
2022-10-12T01:35:08.622Z,99278.22
2022-10-12T01:37:36.235Z,99282.56
2022-10-12T01:40:03.513Z,99278.31
2022-10-12T01:42:30.591Z,99290.38
2022-10-12T01:44:57.674Z,99279.13
2022-10-12T01:47:24.751Z,99283.50
2022-10-12T01:49:52.115Z,99279.25
2022-10-12T01:52:19.284Z,99281.84
2022-10-12T01:54:46.400Z,99281.72
2022-10-12T01:57:13.470Z,99274.03
2022-10-12T01:59:40.539Z,99269.66
2022-10-12T02:02:07.608Z,99267.19
2022-10-12T02:04:34.693Z,99267.19
2022-10-12T02:07:01.771Z,99273.22
2022-10-12T02:09:29.007Z,99274.97
2022-10-12T02:11:57.249Z,99270.63
2022-10-12T02:14:24.356Z,99273.22
2022-10-12T02:16:51.427Z,99277.59
2022-10-12T02:19:18.542Z,99265.50
2022-10-12T02:21:45.629Z,99268.09
2022-10-12T02:24:12.760Z,99262.06
2022-10-12T02:26:39.941Z,99266.44
2022-10-12T02:29:07.046Z,99259.44
2022-10-12T02:31:34.136Z,99261.22
2022-10-12T02:34:01.323Z,99258.63
2022-10-12T02:36:28.486Z,99252.59
2022-10-12T02:38:55.597Z,99262.16
2022-10-12T02:41:22.735Z,99263.00
2022-10-12T02:43:49.808Z,99257.91
2022-10-12T02:46:16.923Z,99261.34
2022-10-12T02:48:43.995Z,99264.75
2022-10-12T02:51:11.474Z,99261.34
2022-10-12T02:53:38.559Z,99259.63
2022-10-12T02:56:05.777Z,99265.69
2022-10-12T02:58:32.897Z,99263.09
2022-10-12T03:01:00.046Z,99270.03
2022-10-12T03:03:27.187Z,99263.09
2022-10-12T03:05:54.274Z,99268.38
2022-10-12T03:08:21.348Z,99270.16
2022-10-12T03:10:48.455Z,99268.38
2022-10-12T03:13:15.597Z,99274.50
2022-10-12T03:15:42.692Z,99269.31
2022-10-12T03:18:09.797Z,99268.47
2022-10-12T03:20:36.931Z,99267.66
2022-10-12T03:23:04.021Z,99254.72
2022-10-12T03:25:31.197Z,99258.09
2022-10-12T03:27:58.271Z,99257.31
2022-10-12T03:30:25.364Z,99252.97
2022-10-12T03:32:52.424Z,99251.28
2022-10-12T03:35:19.527Z,99247.88
2022-10-12T03:37:46.595Z,99247.88
2022-10-12T03:40:13.952Z,99248.69
2022-10-12T03:42:41.013Z,99241.00
2022-10-12T03:45:09.546Z,99243.59
2022-10-12T03:47:38.104Z,99244.50
2022-10-12T03:50:05.391Z,99248.81
2022-10-12T03:52:32.581Z,99247.03
2022-10-12T03:54:59.671Z,99246.22
2022-10-12T03:57:26.887Z,99244.50
2022-10-12T03:59:54.025Z,99245.44
2022-10-12T04:02:21.131Z,99248.88
2022-10-12T04:04:48.231Z,99251.47
2022-10-12T04:07:15.387Z,99256.69
2022-10-12T04:09:42.475Z,99255.84
2022-10-12T04:12:09.537Z,99249.81
2022-10-12T04:14:37.120Z,99248.06
2022-10-12T04:17:04.581Z,99242.03
2022-10-12T04:19:31.670Z,99243.78
2022-10-12T04:21:58.766Z,99234.22
2022-10-12T04:24:25.827Z,99238.47
2022-10-12T04:26:52.898Z,99236.81
2022-10-12T04:29:20.054Z,99242.97
2022-10-12T04:31:47.119Z,99240.34
2022-10-12T04:34:14.203Z,99242.13
2022-10-12T04:36:41.388Z,99246.47
2022-10-12T04:39:08.475Z,99244.72
2022-10-12T04:41:35.564Z,99251.78
2022-10-12T04:44:02.651Z,99250.84
2022-10-12T04:46:29.722Z,99265.59
2022-10-12T04:48:56.796Z,99259.47
2022-10-12T04:51:24.785Z,99261.22
2022-10-12T04:53:51.852Z,99267.38
2022-10-12T04:56:19.179Z,99267.38
2022-10-12T04:58:46.334Z,99262.16
2022-10-12T05:01:13.462Z,99261.41
2022-10-12T05:03:42.116Z,99267.47
2022-10-12T05:06:09.451Z,99266.63
2022-10-12T05:08:36.570Z,99270.97
2022-10-12T05:11:03.676Z,99264.13
2022-10-12T05:13:30.784Z,99271.81
2022-10-12T05:15:57.852Z,99271.81
2022-10-12T05:18:24.924Z,99277.00
2022-10-12T05:20:56.666Z,99272.75
2022-10-12T05:23:24.231Z,99276.28
2022-10-12T05:25:51.319Z,99275.34
2022-10-12T05:28:18.466Z,99273.56
2022-10-12T05:30:45.615Z,99273.69
2022-10-12T05:33:12.682Z,99279.72
2022-10-12T05:35:43.947Z,99278.06
2022-10-12T05:38:13.947Z,99280.66
2022-10-12T05:40:41.047Z,99272.03
2022-10-12T05:43:08.181Z,99274.63
2022-10-12T05:45:35.242Z,99276.34
2022-10-12T05:48:02.316Z,99284.16
2022-10-12T05:50:29.377Z,99278.97
2022-10-12T05:52:56.552Z,99284.16
2022-10-12T05:55:23.675Z,99292.81
2022-10-12T05:57:51.953Z,99290.28
2022-10-12T06:00:19.203Z,99294.56
2022-10-12T06:02:46.318Z,99288.63
2022-10-12T06:05:13.404Z,99288.63
2022-10-12T06:07:40.482Z,99292.06
2022-10-12T06:10:07.622Z,99295.50
2022-10-12T06:12:34.902Z,99296.44
2022-10-12T06:15:02.214Z,99289.47
2022-10-12T06:17:29.491Z,99295.59
2022-10-12T06:19:56.719Z,99297.25
2022-10-12T06:22:23.803Z,99290.41
2022-10-12T06:24:50.924Z,99295.59
2022-10-12T06:27:19.997Z,99285.19
2022-10-12T06:29:47.069Z,99283.44
2022-10-12T06:32:14.154Z,99293.00
2022-10-12T06:34:41.282Z,99290.41
2022-10-12T06:37:16.399Z,99301.63
2022-10-12T06:39:55.831Z,99293.00
2022-10-12T06:42:22.911Z,99293.94
2022-10-12T06:44:50.053Z,99304.22
2022-10-12T06:47:17.143Z,99295.59
2022-10-12T06:49:44.261Z,99302.47
2022-10-12T06:52:11.379Z,99306.72
2022-10-12T06:54:38.524Z,99300.78
2022-10-12T06:57:05.611Z,99305.16
2022-10-12T06:59:32.730Z,99305.06
2022-10-12T07:02:00.020Z,99302.56
2022-10-12T07:04:27.172Z,99311.25
2022-10-12T07:06:54.251Z,99318.22
2022-10-12T07:09:21.323Z,99323.34
2022-10-12T07:11:48.404Z,99325.97
2022-10-12T07:14:15.466Z,99319.81
2022-10-12T07:16:42.551Z,99320.66
2022-10-12T07:19:09.625Z,99316.28
2022-10-12T07:21:36.704Z,99322.31
2022-10-12T07:24:03.778Z,99323.16
2022-10-12T07:26:31.683Z,99324.00
2022-10-12T07:28:58.859Z,99322.25
2022-10-12T07:31:25.956Z,99317.03
2022-10-12T07:33:53.089Z,99319.72
2022-10-12T07:36:21.929Z,99324.38
2022-10-12T07:38:49.355Z,99324.56
2022-10-12T07:41:16.440Z,99333.19
2022-10-12T07:43:43.558Z,99330.41
2022-10-12T07:46:10.676Z,99333.84
2022-10-12T07:48:37.994Z,99330.31
2022-10-12T07:51:05.107Z,99328.53
2022-10-12T07:53:32.172Z,99324.19
2022-10-12T07:55:59.287Z,99327.53
2022-10-12T07:58:26.353Z,99319.63
2022-10-12T08:00:53.459Z,99321.31
2022-10-12T08:03:20.531Z,99326.41
2022-10-12T08:05:47.608Z,99325.47
2022-10-12T08:08:14.714Z,99319.44
2022-10-12T08:10:41.806Z,99319.38
2022-10-12T08:13:08.923Z,99321.88
2022-10-12T08:15:35.980Z,99321.88
2022-10-12T08:18:03.083Z,99316.56
2022-10-12T08:20:30.194Z,99324.16
2022-10-12T08:22:57.393Z,99319.38
2022-10-12T08:25:24.658Z,99314.25
2022-10-12T08:27:51.978Z,99307.38
2022-10-12T08:30:20.187Z,99309.22
2022-10-12T08:32:47.261Z,99315.19
2022-10-12T08:35:14.340Z,99304.78
2022-10-12T08:37:41.725Z,99300.50
2022-10-12T08:40:09.035Z,99297.81
2022-10-12T08:42:36.254Z,99298.63
2022-10-12T08:45:03.390Z,99291.59
2022-10-12T08:47:30.531Z,99289.91
2022-10-12T08:49:57.613Z,99291.59
2022-10-12T08:52:24.752Z,99285.44
2022-10-12T08:54:51.903Z,99283.69
2022-10-12T08:57:19.029Z,99287.03
2022-10-12T08:59:46.151Z,99279.31
2022-10-12T09:02:13.283Z,99281.91
2022-10-12T09:04:40.484Z,99287.75
2022-10-12T09:07:07.556Z,99286.94
2022-10-12T09:09:34.640Z,99285.16
2022-10-12T09:12:01.744Z,99285.97
2022-10-12T09:14:28.896Z,99283.38
2022-10-12T09:16:55.986Z,99285.91
2022-10-12T09:19:23.143Z,99284.13
2022-10-12T09:21:50.285Z,99284.97
2022-10-12T09:24:17.467Z,99286.75
2022-10-12T09:26:44.547Z,99296.22
2022-10-12T09:29:11.622Z,99288.41
2022-10-12T09:31:38.733Z,99281.44
2022-10-12T09:34:05.815Z,99287.47
2022-10-12T09:36:32.898Z,99296.47
2022-10-12T09:39:00.003Z,99290.34
2022-10-12T09:41:27.295Z,99291.72
2022-10-12T09:43:54.452Z,99286.22
2022-10-12T09:46:21.535Z,99289.56
2022-10-12T09:48:48.691Z,99279.78
2022-10-12T09:51:16.571Z,99279.97
2022-10-12T09:53:43.677Z,99276.34
2022-10-12T09:56:13.200Z,99276.75
2022-10-12T09:58:43.338Z,99272.41
2022-10-12T10:01:10.405Z,99263.94
2022-10-12T10:03:37.517Z,99257.06
2022-10-12T10:06:04.597Z,99263.19
2022-10-12T10:08:31.887Z,99260.59
2022-10-12T10:10:58.979Z,99264.84
2022-10-12T10:13:26.134Z,99267.47
2022-10-12T10:15:53.528Z,99263.31
2022-10-12T10:18:20.696Z,99260.50
2022-10-12T10:20:47.793Z,99271.94
2022-10-12T10:23:15.040Z,99270.28
2022-10-12T10:25:42.113Z,99278.16
2022-10-12T10:28:09.638Z,99267.88
2022-10-12T10:30:40.764Z,99278.16
2022-10-12T10:33:08.343Z,99278.28
2022-10-12T10:35:35.441Z,99278.09
2022-10-12T10:38:03.870Z,99276.13
2022-10-12T10:40:30.940Z,99270.81
2022-10-12T10:42:58.070Z,99268.22
2022-10-12T10:45:25.212Z,99270.69
2022-10-12T10:47:56.465Z,99266.31
2022-10-12T10:50:23.538Z,99264.66
2022-10-12T10:52:50.610Z,99275.06
2022-10-12T10:55:17.862Z,99268.09
2022-10-12T10:57:44.926Z,99267.38
2022-10-12T11:00:37.173Z,99263.19
2022-10-12T11:02:59.146Z,99262.38
2022-10-12T11:05:26.299Z,99262.38
2022-10-12T11:07:53.382Z,99257.16
2022-10-12T11:10:20.460Z,99258.09
2022-10-12T11:12:49.692Z,99254.56
2022-10-12T11:15:16.843Z,99255.50
2022-10-12T11:17:44.044Z,99252.59
2022-10-12T11:20:13.603Z,99248.13
2022-10-12T11:22:42.867Z,99250.63
2022-10-12T11:25:09.980Z,99245.31
2022-10-12T11:27:37.067Z,99239.28
2022-10-12T11:30:09.918Z,99238.34
2022-10-12T11:32:37.276Z,99236.59
2022-10-12T11:35:04.495Z,99227.03
2022-10-12T11:37:31.571Z,99229.63
2022-10-12T11:39:58.658Z,99225.25
2022-10-12T11:42:25.727Z,99221.81
2022-10-12T11:44:52.803Z,99227.22
2022-10-12T11:47:19.869Z,99223.66
2022-10-12T11:49:46.939Z,99213.38
2022-10-12T11:52:14.090Z,99208.16
2022-10-12T11:54:41.203Z,99209.94
2022-10-12T11:57:08.284Z,99208.16
2022-10-12T11:59:35.390Z,99208.16
2022-10-12T12:02:02.515Z,99205.56
2022-10-12T12:04:41.858Z,99199.44
2022-10-12T12:07:14.577Z,99200.72
2022-10-12T12:09:44.209Z,99198.56
2022-10-12T12:12:16.089Z,99199.69
2022-10-12T12:14:43.515Z,99195.13
2022-10-12T12:17:10.930Z,99195.00
2022-10-12T12:19:38.131Z,99197.56
2022-10-12T12:22:05.234Z,99189.81
2022-10-12T12:24:32.346Z,99188.06
2022-10-12T12:26:59.407Z,99188.06
2022-10-12T12:29:27.107Z,99174.97
2022-10-12T12:31:56.197Z,99177.25
2022-10-12T12:34:23.266Z,99184.13
2022-10-12T12:36:52.113Z,99175.41
2022-10-12T12:39:19.206Z,99178.91
2022-10-12T12:41:50.283Z,99179.75
2022-10-12T12:44:21.345Z,99183.28
2022-10-12T12:46:48.445Z,99179.97
2022-10-12T12:49:15.539Z,99173.81
2022-10-12T12:51:42.648Z,99168.50
2022-10-12T12:54:09.727Z,99168.50
2022-10-12T12:56:36.869Z,99164.97
2022-10-12T12:59:04.010Z,99166.53
2022-10-12T13:01:31.158Z,99164.88
2022-10-12T13:03:58.292Z,99170.06
2022-10-12T13:06:25.376Z,99164.03
2022-10-12T13:08:52.447Z,99157.06
2022-10-12T13:11:19.567Z,99152.69
2022-10-12T13:13:46.705Z,99156.94
2022-10-12T13:16:28.467Z,99151.84
2022-10-12T13:19:01.894Z,99146.53
2022-10-12T13:21:28.967Z,99149.88
2022-10-12T13:23:56.073Z,99139.47
2022-10-12T13:26:23.259Z,99142.78
2022-10-12T13:28:50.428Z,99140.47
2022-10-12T13:31:17.620Z,99138.81
2022-10-12T13:33:44.749Z,99144.28
2022-10-12T13:36:13.282Z,99144.28
2022-10-12T13:38:40.558Z,99134.75
2022-10-12T13:41:07.697Z,99135.38
2022-10-12T13:43:34.765Z,99138.81
2022-10-12T13:46:01.894Z,99134.50
2022-10-12T13:48:54.313Z,99137.97
2022-10-12T13:51:16.121Z,99130.16
2022-10-12T13:53:43.355Z,99124.00
2022-10-12T13:56:10.462Z,99120.38
2022-10-12T13:58:37.601Z,99125.66
2022-10-12T14:01:04.918Z,99117.03
2022-10-12T14:03:32.379Z,99117.16
2022-10-12T14:06:04.099Z,99112.66
2022-10-12T14:08:31.723Z,99117.97
2022-10-12T14:10:59.123Z,99114.75
2022-10-12T14:13:26.430Z,99119.00
2022-10-12T14:15:53.524Z,99121.50
2022-10-12T14:18:20.858Z,99113.69
2022-10-12T14:20:48.287Z,99119.63
2022-10-12T14:23:15.377Z,99114.53
2022-10-12T14:25:42.462Z,99114.53
2022-10-12T14:28:12.988Z,99114.63
2022-10-12T14:30:40.347Z,99118.06
2022-10-12T14:33:07.416Z,99119.75
2022-10-12T14:35:34.490Z,99121.50
2022-10-12T14:38:01.573Z,99119.75
2022-10-12T14:40:28.666Z,99124.09
2022-10-12T14:42:55.785Z,99123.25
2022-10-12T14:45:23.006Z,99125.88
2022-10-12T14:47:50.082Z,99119.84
2022-10-12T14:50:17.165Z,99125.03
2022-10-12T14:52:44.285Z,99119.94
2022-10-12T14:55:11.371Z,99113.81
2022-10-12T14:57:38.467Z,99118.81
2022-10-12T15:00:05.548Z,99121.41
2022-10-12T15:02:32.753Z,99119.63
2022-10-12T15:04:59.898Z,99124.72
2022-10-12T15:07:26.978Z,99124.72
2022-10-12T15:09:54.046Z,99122.91
2022-10-12T15:12:21.146Z,99122.06
2022-10-12T15:14:49.457Z,99123.91
2022-10-12T15:17:16.531Z,99123.84
2022-10-12T15:19:43.684Z,99119.34
2022-10-12T15:22:10.776Z,99117.50
2022-10-12T15:24:37.879Z,99118.22
2022-10-12T15:27:05.008Z,99121.75
2022-10-12T15:29:32.105Z,99121.75
2022-10-12T15:31:59.631Z,99121.75
2022-10-12T15:34:26.993Z,99125.06
2022-10-12T15:36:54.105Z,99123.41
2022-10-12T15:39:21.166Z,99118.94
2022-10-12T15:41:48.679Z,99129.38
2022-10-12T15:44:15.817Z,99131.03
2022-10-12T15:46:42.911Z,99131.13
2022-10-12T15:49:10.027Z,99128.53
2022-10-12T15:51:37.139Z,99132.78
2022-10-12T15:54:04.257Z,99129.38
2022-10-12T15:56:31.384Z,99127.66
2022-10-12T15:58:58.572Z,99126.66
2022-10-12T16:01:25.749Z,99121.44
2022-10-12T16:03:52.943Z,99126.75
2022-10-12T16:06:20.127Z,99120.59
2022-10-12T16:08:47.223Z,99118.00
2022-10-12T16:11:14.378Z,99117.06
2022-10-12T16:13:47.932Z,99120.59
2022-10-12T16:16:17.047Z,99120.59
2022-10-12T16:18:44.148Z,99118.00
2022-10-12T16:21:11.486Z,99117.06
2022-10-12T16:23:38.630Z,99108.41
2022-10-12T16:26:05.812Z,99112.69
2022-10-12T16:28:32.994Z,99126.56
2022-10-12T16:31:00.099Z,99120.50
2022-10-12T16:33:27.268Z,99118.84
2022-10-12T16:35:54.339Z,99115.28
2022-10-12T16:38:21.453Z,99121.22
2022-10-12T16:40:49.378Z,99121.56
2022-10-12T16:43:16.449Z,99124.56
2022-10-12T16:45:43.554Z,99124.00
2022-10-12T16:48:10.648Z,99126.63
2022-10-12T16:50:40.447Z,99124.84
2022-10-12T16:53:07.737Z,99121.41
2022-10-12T16:55:35.053Z,99124.00
2022-10-12T16:58:02.229Z,99128.47
2022-10-12T17:00:29.356Z,99123.25
2022-10-12T17:02:57.473Z,99121.59
2022-10-12T17:05:24.719Z,99128.59
2022-10-12T17:07:51.815Z,99128.59
2022-10-12T17:10:18.891Z,99125.25
2022-10-12T17:12:45.961Z,99131.38
2022-10-12T17:15:13.093Z,99141.81
2022-10-12T17:17:40.194Z,99140.97
2022-10-12T17:20:07.396Z,99133.88
2022-10-12T17:22:34.943Z,99139.19
2022-10-12T17:25:02.126Z,99139.31
2022-10-12T17:27:32.209Z,99138.38
2022-10-12T17:29:59.721Z,99143.66
2022-10-12T17:32:27.065Z,99141.06
2022-10-12T17:34:54.332Z,99136.78
2022-10-12T17:37:22.010Z,99142.81
2022-10-12T17:39:50.441Z,99135.97
2022-10-12T17:42:18.803Z,99135.25
2022-10-12T17:44:46.166Z,99137.00
2022-10-12T17:47:13.241Z,99135.31
2022-10-12T17:49:40.366Z,99137.22
2022-10-12T17:52:07.494Z,99129.41
2022-10-12T17:54:34.649Z,99129.41
2022-10-12T17:57:01.741Z,99124.22
2022-10-12T17:59:28.993Z,99119.91
2022-10-12T18:01:56.135Z,99133.03
2022-10-12T18:04:23.359Z,99133.97
2022-10-12T18:06:50.514Z,99131.38
2022-10-12T18:09:17.664Z,99134.06
2022-10-12T18:11:44.759Z,99130.63
2022-10-12T18:14:13.057Z,99134.06
2022-10-12T18:16:40.212Z,99131.56
2022-10-12T18:19:09.629Z,99129.06
2022-10-12T18:21:37.022Z,99124.47
2022-10-12T18:24:04.114Z,99127.09
2022-10-12T18:26:33.063Z,99124.41
2022-10-12T18:29:00.218Z,99125.44
2022-10-12T18:31:27.343Z,99123.78
2022-10-12T18:33:54.500Z,99128.97
2022-10-12T18:36:21.659Z,99124.72
2022-10-12T18:38:48.925Z,99132.59
2022-10-12T18:41:16.232Z,99130.81
2022-10-12T18:43:43.350Z,99129.16
2022-10-12T18:46:10.539Z,99134.50
2022-10-12T18:48:37.668Z,99139.56
2022-10-12T18:51:04.738Z,99137.91
2022-10-12T18:53:31.798Z,99140.53
2022-10-12T18:55:58.895Z,99139.69
2022-10-12T18:58:25.987Z,99141.44
2022-10-12T19:00:53.173Z,99140.59
2022-10-12T19:03:20.299Z,99139.78
2022-10-12T19:05:47.413Z,99136.34
2022-10-12T19:08:14.487Z,99130.31
2022-10-12T19:10:41.588Z,99136.34
2022-10-12T19:13:08.747Z,99136.44
2022-10-12T19:15:35.826Z,99136.44
2022-10-12T19:18:02.914Z,99136.44
2022-10-12T19:20:30.653Z,99135.63
2022-10-12T19:22:57.741Z,99139.06
2022-10-12T19:25:24.854Z,99132.16
2022-10-12T19:27:51.930Z,99130.41
2022-10-12T19:30:19.050Z,99134.88
2022-10-12T19:32:48.669Z,99133.84
2022-10-12T19:35:15.750Z,99133.84
2022-10-12T19:37:42.840Z,99130.41
2022-10-12T19:40:12.577Z,99133.84
2022-10-12T19:42:39.667Z,99135.50
2022-10-12T19:45:06.779Z,99132.16
2022-10-12T19:47:34.837Z,99139.88
2022-10-12T19:50:01.893Z,99139.88
2022-10-12T19:52:29.187Z,99139.78
2022-10-12T19:54:56.264Z,99138.94
2022-10-12T19:57:24.082Z,99138.13
2022-10-12T19:59:51.254Z,99133.94
2022-10-12T20:02:18.714Z,99136.53
2022-10-12T20:04:45.990Z,99137.47
2022-10-12T20:07:13.151Z,99140.91
2022-10-12T20:09:40.219Z,99130.69
2022-10-12T20:12:07.299Z,99135.91
2022-10-12T20:14:34.403Z,99126.44
2022-10-12T20:17:01.479Z,99126.44
2022-10-12T20:19:28.619Z,99127.38
2022-10-12T20:21:55.735Z,99126.53
2022-10-12T20:24:22.819Z,99132.59
2022-10-12T20:26:49.904Z,99131.84
2022-10-12T20:29:16.998Z,99130.06
2022-10-12T20:31:44.090Z,99130.06
2022-10-12T20:34:11.250Z,99137.97
2022-10-12T20:36:38.322Z,99142.25
2022-10-12T20:39:05.496Z,99139.75
2022-10-12T20:41:32.738Z,99141.53
2022-10-12T20:43:59.949Z,99138.09
2022-10-12T20:46:27.049Z,99138.09
2022-10-12T20:48:58.177Z,99130.28
2022-10-12T20:51:25.859Z,99138.16
2022-10-12T20:53:52.992Z,99140.78
2022-10-12T20:56:20.121Z,99140.78
2022-10-12T20:58:47.196Z,99141.72
2022-10-12T21:01:14.362Z,99133.09
2022-10-12T21:03:42.347Z,99134.00
2022-10-12T21:06:09.460Z,99135.75
2022-10-12T21:08:36.639Z,99135.75
2022-10-12T21:11:03.764Z,99140.97
2022-10-12T21:13:30.834Z,99138.38
2022-10-12T21:15:58.379Z,99134.09
2022-10-12T21:18:25.684Z,99138.47
2022-10-12T21:20:52.752Z,99139.31
2022-10-12T21:23:19.828Z,99135.94
2022-10-12T21:25:46.907Z,99136.81
2022-10-12T21:28:14.037Z,99139.41
2022-10-12T21:30:41.140Z,99144.63
2022-10-12T21:33:08.209Z,99151.56
2022-10-12T21:35:35.339Z,99149.91
2022-10-12T21:38:03.708Z,99138.56
2022-10-12T21:40:30.784Z,99147.22
2022-10-12T21:42:57.859Z,99142.09
2022-10-12T21:45:24.969Z,99143.03
2022-10-12T21:47:52.046Z,99134.28
2022-10-12T21:50:19.106Z,99132.63
2022-10-12T21:52:49.682Z,99130.88
2022-10-12T21:55:17.191Z,99124.09
2022-10-12T21:57:44.258Z,99129.28
2022-10-12T22:00:11.328Z,99124.09
2022-10-12T22:02:38.655Z,99123.25
2022-10-12T22:05:05.896Z,99119.81
2022-10-12T22:07:32.971Z,99125.84
2022-10-12T22:10:00.084Z,99121.47
2022-10-12T22:12:27.503Z,99117.22
2022-10-12T22:14:54.579Z,99120.66
2022-10-12T22:17:21.705Z,99120.66
2022-10-12T22:19:48.776Z,99120.66
2022-10-12T22:22:16.240Z,99115.56
2022-10-12T22:24:43.526Z,99113.78
2022-10-12T22:27:10.604Z,99099.13
2022-10-12T22:29:37.689Z,99099.13
2022-10-12T22:32:04.764Z,99100.03
2022-10-12T22:34:31.844Z,99100.03
2022-10-12T22:36:58.923Z,99095.78
2022-10-12T22:39:26.006Z,99096.59
2022-10-12T22:41:53.088Z,99100.16
2022-10-12T22:44:20.161Z,99090.56
2022-10-12T22:46:47.239Z,99095.78
2022-10-12T22:49:14.311Z,99094.00
2022-10-12T22:51:41.450Z,99095.78
2022-10-12T22:54:08.539Z,99091.53
2022-10-12T22:56:35.674Z,99085.50
2022-10-12T22:59:02.771Z,99084.56
2022-10-12T23:01:29.878Z,99082.06
2022-10-12T23:03:57.060Z,99085.50
2022-10-12T23:06:24.160Z,99080.28
2022-10-12T23:08:51.268Z,99084.66
2022-10-12T23:11:18.389Z,99094.19
2022-10-12T23:13:45.614Z,99095.16
2022-10-12T23:16:12.781Z,99108.97
2022-10-12T23:18:39.908Z,99102.88
2022-10-12T23:21:07.079Z,99102.00
2022-10-12T23:23:34.794Z,99089.13
2022-10-12T23:26:01.959Z,99096.91
2022-10-12T23:28:29.103Z,99098.56
2022-10-12T23:30:56.219Z,99098.69
2022-10-12T23:33:23.364Z,99096.91
2022-10-12T23:35:50.459Z,99093.47
2022-10-12T23:38:17.536Z,99095.16
2022-10-12T23:40:44.709Z,99089.13
2022-10-12T23:43:11.817Z,99084.03
2022-10-12T23:45:38.899Z,99089.22
2022-10-12T23:48:05.966Z,99094.44
2022-10-12T23:50:33.050Z,99086.63
2022-10-12T23:53:00.238Z,99091.00
2022-10-12T23:55:27.306Z,99093.59
2022-10-12T23:57:54.647Z,99090.13
